Time;durP1;ratioP1;P1;durP2;ratioP2;P2;SDS_P1;SDS_P2;PMS_P1;PMS_P2;Temp;Humidity;BMP_temperature;BMP_pressure;BME280_temperature;BME280_humidity;BME280_pressure;Samples;Min_cycle;Max_cycle;Signal;HPM_P1;HPM_P2
2023/08/16 00:00:53;;;;;;;12.43;6.10;;;;;;;20.37;100.00;96818.63;5033471;28;20394;-67
2023/08/16 00:03:19;;;;;;;13.18;6.25;;;;;;;20.36;100.00;96819.84;5032690;28;20025;-67
2023/08/16 00:05:44;;;;;;;11.27;5.65;;;;;;;20.34;100.00;96813.91;5032816;28;20108;-68
2023/08/16 00:08:10;;;;;;;12.05;5.65;;;;;;;20.33;100.00;96809.59;5032838;28;20080;-68
2023/08/16 00:10:36;;;;;;;8.73;6.00;;;;;;;20.35;100.00;96809.16;5032801;28;20037;-66
2023/08/16 00:13:01;;;;;;;10.45;5.50;;;;;;;20.33;100.00;96814.34;5032645;28;20553;-67
2023/08/16 00:15:26;;;;;;;12.77;6.22;;;;;;;20.31;100.00;96812.03;5032936;28;20434;-68
2023/08/16 00:17:53;;;;;;;8.38;5.80;;;;;;;20.16;100.00;96817.06;5032793;28;20036;-67
2023/08/16 00:20:26;;;;;;;9.80;6.15;;;;;;;20.00;100.00;96820.53;5033064;28;20053;-67
2023/08/16 00:22:52;;;;;;;8.80;6.10;;;;;;;19.96;100.00;96816.28;5032484;28;20482;-67
2023/08/16 00:25:18;;;;;;;15.65;6.63;;;;;;;19.89;100.00;96816.41;5032710;28;20041;-67
2023/08/16 00:27:43;;;;;;;10.82;6.38;;;;;;;19.80;100.00;96809.41;5032598;28;20443;-68
2023/08/16 00:30:09;;;;;;;9.07;6.15;;;;;;;19.82;100.00;96814.53;5032591;28;20025;-67
2023/08/16 00:32:35;;;;;;;8.43;5.72;;;;;;;19.84;100.00;96806.56;5032297;28;20429;-67
2023/08/16 00:35:00;;;;;;;12.27;6.25;;;;;;;19.82;100.00;96806.97;5032691;28;20061;-67
2023/08/16 00:37:26;;;;;;;10.25;5.65;;;;;;;19.82;100.00;96806.97;5032316;28;20371;-68
2023/08/16 00:39:51;;;;;;;11.70;5.63;;;;;;;19.84;100.00;96810.13;5032542;28;20029;-67
2023/08/16 00:42:16;;;;;;;10.32;5.50;;;;;;;20.03;100.00;96807.81;5033002;28;20033;-68
2023/08/16 00:44:42;;;;;;;10.70;5.78;;;;;;;20.31;100.00;96800.91;5032308;28;20429;-67
2023/08/16 00:47:07;;;;;;;9.15;5.22;;;;;;;20.38;100.00;96795.19;5032322;28;20033;-67
2023/08/16 00:49:33;;;;;;;10.20;5.97;;;;;;;20.42;100.00;96795.09;5032270;28;20037;-68
2023/08/16 00:52:01;;;;;;;13.40;5.68;;;;;;;20.35;100.00;96796.03;5032493;28;20029;-68
2023/08/16 00:54:27;;;;;;;9.93;5.28;;;;;;;20.21;100.00;96793.53;5032136;28;20100;-68
2023/08/16 00:56:52;;;;;;;11.85;5.72;;;;;;;20.19;100.00;96791.19;5032042;28;20030;-68
2023/08/16 00:59:19;;;;;;;9.88;5.63;;;;;;;20.08;100.00;96789.81;5031853;28;20110;-69
2023/08/16 01:01:45;;;;;;;12.52;4.80;;;;;;;20.04;100.00;96790.69;5032362;28;20026;-67
2023/08/16 01:04:11;;;;;;;8.65;5.70;;;;;;;20.09;100.00;96786.63;5033961;28;20043;-67
2023/08/16 01:06:36;;;;;;;9.55;5.40;;;;;;;20.14;100.00;96790.91;5033011;28;20033;-68
2023/08/16 01:09:03;;;;;;;10.23;5.88;;;;;;;20.09;100.00;96785.84;5032201;28;20034;-67
2023/08/16 01:11:31;;;;;;;11.32;6.05;;;;;;;19.98;100.00;96789.59;5023051;28;20075;-69
2023/08/16 01:14:05;;;;;;;10.88;6.22;;;;;;;19.86;100.00;96793.81;5031789;28;20057;-68
2023/08/16 01:16:33;;;;;;;9.65;6.60;;;;;;;19.79;100.00;96787.59;5031975;28;20029;-68
2023/08/16 01:19:00;;;;;;;11.25;6.43;;;;;;;19.82;100.00;96784.75;5031856;28;20033;-68
2023/08/16 01:21:27;;;;;;;20.75;8.93;;;;;;;19.93;100.00;96781.00;5031986;28;20085;-68
2023/08/16 01:24:26;;;;;;;20.23;9.57;;;;;;;19.79;100.00;96773.69;5013827;28;20368;-69
2023/08/16 01:26:53;;;;;;;8.90;6.28;;;;;;;19.70;100.00;96776.22;5032183;28;20075;-68
2023/08/16 01:29:19;;;;;;;14.68;5.70;;;;;;;19.57;100.00;96768.53;5032103;28;20035;-67
2023/08/16 01:31:45;;;;;;;10.80;5.78;;;;;;;19.52;100.00;96787.66;5031756;28;20029;-66
2023/08/16 01:34:11;;;;;;;12.57;5.70;;;;;;;19.49;100.00;96784.53;5031660;28;20029;-67
2023/08/16 01:36:36;;;;;;;11.55;6.45;;;;;;;19.42;100.00;96775.53;5031739;28;20446;-67
2023/08/16 01:39:02;;;;;;;11.77;6.00;;;;;;;19.38;100.00;96774.81;5031539;28;20394;-67
2023/08/16 01:41:43;;;;;;;10.63;5.55;;;;;;;19.29;100.00;96773.38;5031803;28;20039;-67
2023/08/16 01:44:11;;;;;;;12.13;5.70;;;;;;;19.23;100.00;96775.06;5031552;28;20538;-67
2023/08/16 01:46:39;;;;;;;10.73;6.07;;;;;;;19.19;100.00;96774.31;5031659;28;20398;-67
2023/08/16 01:49:05;;;;;;;11.13;5.80;;;;;;;19.16;100.00;96788.25;5031669;28;20442;-67
2023/08/16 01:51:31;;;;;;;9.07;5.80;;;;;;;19.23;100.00;96788.94;5031713;28;20021;-67
2023/08/16 01:53:57;;;;;;;10.55;6.00;;;;;;;19.37;100.00;96781.56;5031192;28;20029;-67
2023/08/16 01:56:22;;;;;;;7.32;5.82;;;;;;;19.44;100.00;96778.69;5031531;28;20030;-67
2023/08/16 01:58:48;;;;;;;9.38;5.93;;;;;;;19.49;100.00;96776.19;5031212;28;20094;-66
2023/08/16 02:01:14;;;;;;;12.98;6.00;;;;;;;19.44;100.00;96782.22;5031341;28;20457;-67
2023/08/16 02:03:40;;;;;;;13.55;6.38;;;;;;;19.22;100.00;96776.25;5031272;28;20485;-67
2023/08/16 02:06:05;;;;;;;9.15;5.95;;;;;;;19.15;100.00;96776.38;5031359;28;20064;-67
2023/08/16 02:08:31;;;;;;;10.95;6.35;;;;;;;19.21;100.00;96782.22;5031660;28;20075;-68
2023/08/16 02:10:56;;;;;;;10.40;6.35;;;;;;;19.22;100.00;96767.94;5031306;28;20107;-68
2023/08/16 02:13:21;;;;;;;8.57;6.28;;;;;;;19.15;100.00;96773.59;5035041;28;20041;-67
2023/08/16 02:15:47;;;;;;;13.77;8.10;;;;;;;19.04;100.00;96773.78;5035264;28;20034;-67
2023/08/16 02:18:13;;;;;;;10.35;7.32;;;;;;;18.82;100.00;96770.56;5035055;28;20571;-67
2023/08/16 02:20:39;;;;;;;15.38;7.18;;;;;;;18.72;100.00;96777.00;5035290;28;20068;-67
2023/08/16 02:23:08;;;;;;;12.55;6.88;;;;;;;18.77;100.00;96776.53;5016907;28;20124;-67
2023/08/16 02:25:34;;;;;;;15.05;7.70;;;;;;;18.74;100.00;96777.38;5034884;28;20037;-67
2023/08/16 02:27:59;;;;;;;16.13;8.45;;;;;;;18.43;100.00;96782.19;5034988;28;20504;-68
2023/08/16 02:30:25;;;;;;;16.05;8.27;;;;;;;18.24;100.00;96781.63;5034594;28;20478;-68
2023/08/16 02:32:50;;;;;;;12.77;8.55;;;;;;;18.01;100.00;96776.75;5034543;28;20117;-67
2023/08/16 02:35:16;;;;;;;12.88;8.27;;;;;;;18.01;100.00;96771.22;5034672;28;20021;-67
2023/08/16 02:37:42;;;;;;;10.30;7.47;;;;;;;18.10;100.00;96771.50;5034458;28;20025;-66
2023/08/16 02:40:08;;;;;;;12.98;7.90;;;;;;;18.11;100.00;96775.06;5034370;28;20041;-68
2023/08/16 02:42:33;;;;;;;12.23;8.32;;;;;;;17.95;100.00;96762.59;5034043;28;20099;-67
2023/08/16 02:44:58;;;;;;;14.27;8.88;;;;;;;17.84;100.00;96761.88;5034693;28;20116;-67
2023/08/16 02:47:24;;;;;;;15.35;8.27;;;;;;;17.75;100.00;96765.16;5034523;28;20394;-67
2023/08/16 02:49:49;;;;;;;13.85;8.48;;;;;;;17.81;100.00;96764.69;5034310;28;20034;-67
2023/08/16 02:52:15;;;;;;;11.82;8.60;;;;;;;17.97;100.00;96764.94;5033985;28;20076;-67
2023/08/16 02:54:41;;;;;;;12.93;7.88;;;;;;;18.08;100.00;96762.81;5034451;28;20033;-67
2023/08/16 02:57:06;;;;;;;10.40;7.50;;;;;;;18.17;100.00;96767.06;5034226;28;20033;-67
2023/08/16 02:59:40;;;;;;;12.65;7.07;;;;;;;18.11;100.00;96759.22;5034394;28;20048;-67
2023/08/16 03:02:05;;;;;;;14.55;7.72;;;;;;;18.19;100.00;96759.91;5033746;28;20112;-67
2023/08/16 03:04:31;;;;;;;9.35;6.82;;;;;;;18.29;100.00;96763.75;5034157;28;20117;-67
2023/08/16 03:06:56;;;;;;;9.75;6.78;;;;;;;18.37;100.00;96767.22;5034060;28;20032;-66
2023/08/16 03:09:21;;;;;;;21.55;8.48;;;;;;;18.24;100.00;96767.78;5033903;28;20034;-67
2023/08/16 03:11:49;;;;;;;12.57;7.22;;;;;;;18.20;100.00;96755.94;5033873;28;20463;-67
2023/08/16 03:14:14;;;;;;;14.35;6.90;;;;;;;18.23;100.00;96760.66;5033831;28;20513;-67
2023/08/16 03:16:40;;;;;;;14.00;6.65;;;;;;;18.18;100.00;96760.31;5033818;28;20033;-67
2023/08/16 03:19:06;;;;;;;9.93;7.22;;;;;;;17.96;100.00;96761.38;5033913;28;20026;-67
2023/08/16 03:21:33;;;;;;;13.75;7.57;;;;;;;17.83;100.00;96756.75;5033767;28;20030;-67
2023/08/16 03:23:59;;;;;;;14.35;7.03;;;;;;;17.82;100.00;96755.97;5032344;28;20030;-67
2023/08/16 03:26:24;;;;;;;10.05;7.28;;;;;;;17.80;100.00;96763.13;5033807;28;20067;-67
2023/08/16 03:28:49;;;;;;;10.05;7.05;;;;;;;17.86;100.00;96761.50;5015851;28;20021;-67
2023/08/16 03:31:15;;;;;;;10.70;7.10;;;;;;;17.94;100.00;96772.09;5033693;28;20033;-67
2023/08/16 03:33:40;;;;;;;14.40;6.82;;;;;;;17.92;100.00;96776.47;5033199;28;20033;-67
2023/08/16 03:36:05;;;;;;;11.55;6.68;;;;;;;17.89;100.00;96768.97;5033449;28;20034;-67
2023/08/16 03:38:31;;;;;;;10.05;6.82;;;;;;;17.96;100.00;96768.91;5033465;28;20033;-67
2023/08/16 03:40:56;;;;;;;10.45;6.00;;;;;;;18.04;100.00;96778.72;5033515;28;20025;-67
2023/08/16 03:43:21;;;;;;;12.43;6.93;;;;;;;17.96;100.00;96778.00;5033166;28;20114;-67
2023/08/16 03:45:50;;;;;;;12.93;7.85;;;;;;;17.77;100.00;96782.16;5033864;28;20038;-67
2023/08/16 03:48:15;;;;;;;14.93;7.20;;;;;;;17.79;100.00;96784.50;5033428;28;20495;-67
2023/08/16 03:50:40;;;;;;;9.57;5.97;;;;;;;17.85;100.00;96777.34;5033148;28;20045;-68
2023/08/16 03:53:06;;;;;;;11.45;7.20;;;;;;;17.92;100.00;96784.78;5015079;28;20441;-67
2023/08/16 03:55:31;;;;;;;13.93;6.93;;;;;;;17.93;100.00;96787.16;5033071;28;20037;-67
2023/08/16 03:57:57;;;;;;;9.90;7.22;;;;;;;18.02;100.00;96791.41;5033064;28;20587;-67
2023/08/16 04:00:22;;;;;;;12.20;7.65;;;;;;;18.08;100.00;96787.75;5032878;28;20037;-67
2023/08/16 04:02:47;;;;;;;11.25;7.13;;;;;;;18.07;100.00;96790.94;5032696;28;20039;-67
2023/08/16 04:05:14;;;;;;;10.80;6.55;;;;;;;18.06;100.00;96786.59;5032947;28;20422;-67
2023/08/16 04:07:39;;;;;;;11.65;7.00;;;;;;;18.06;100.00;96786.59;5032860;28;20040;-67
2023/08/16 04:10:06;;;;;;;10.27;7.07;;;;;;;18.06;100.00;96787.41;5033006;28;20036;-67
2023/08/16 04:12:32;;;;;;;13.10;7.40;;;;;;;18.03;100.00;96781.91;5032006;28;20118;-67
2023/08/16 04:14:57;;;;;;;9.93;7.38;;;;;;;17.93;100.00;96786.34;5031490;28;20037;-67
2023/08/16 04:17:23;;;;;;;12.80;8.43;;;;;;;17.82;100.00;96778.13;5032794;28;20036;-67
2023/08/16 04:19:48;;;;;;;14.40;8.40;;;;;;;17.54;100.00;96782.78;5036536;28;20548;-67
2023/08/16 04:22:13;;;;;;;11.75;8.60;;;;;;;17.25;100.00;96781.44;5032949;28;20108;-67
2023/08/16 04:24:42;;;;;;;15.00;8.95;;;;;;;17.14;100.00;96784.31;5032824;28;20041;-67
2023/08/16 04:27:07;;;;;;;12.05;7.97;;;;;;;17.21;100.00;96789.78;5032786;28;20040;-67
2023/08/16 04:29:32;;;;;;;10.40;7.78;;;;;;;17.38;100.00;96797.16;5032739;28;20029;-67
2023/08/16 04:31:58;;;;;;;14.07;8.57;;;;;;;17.49;100.00;96787.97;5032597;28;20057;-67
2023/08/16 04:34:23;;;;;;;11.38;7.85;;;;;;;17.63;100.00;96795.34;5032023;28;20480;-67
2023/08/16 04:36:48;;;;;;;12.57;7.85;;;;;;;17.76;100.00;96794.41;5032427;28;20061;-66
2023/08/16 04:39:14;;;;;;;11.75;7.55;;;;;;;17.89;100.00;96794.69;5032274;28;20649;-67
2023/08/16 04:41:39;;;;;;;11.95;7.55;;;;;;;17.95;100.00;96803.34;5032051;28;20029;-67
2023/08/16 04:44:05;;;;;;;11.00;6.95;;;;;;;17.91;100.00;96808.91;5031848;28;20061;-67
2023/08/16 04:46:30;;;;;;;12.60;7.20;;;;;;;17.93;100.00;96812.09;5032121;28;20033;-67
2023/08/16 04:48:56;;;;;;;10.65;7.97;;;;;;;18.09;100.00;96819.03;5031982;28;20435;-67
2023/08/16 04:51:21;;;;;;;11.15;7.43;;;;;;;18.15;100.00;96826.50;5032013;28;20072;-67
2023/08/16 04:53:47;;;;;;;11.07;7.03;;;;;;;18.25;100.00;96826.78;5032538;28;20033;-67
2023/08/16 04:56:12;;;;;;;14.98;7.18;;;;;;;18.37;100.00;96834.53;5043822;28;20033;-66
2023/08/16 04:58:37;;;;;;;12.48;6.78;;;;;;;18.49;100.00;96838.75;5031826;28;20056;-68
2023/08/16 05:01:03;;;;;;;10.02;6.18;;;;;;;18.39;100.00;96839.69;5032083;28;20033;-66
2023/08/16 05:03:32;;;;;;;7.38;5.70;;;;;;;18.46;100.00;96845.13;5031515;28;20030;-66
2023/08/16 05:06:02;;;;;;;10.77;6.60;;;;;;;18.62;100.00;96839.78;5031986;28;20033;-68
2023/08/16 05:08:28;;;;;;;13.02;7.07;;;;;;;18.82;100.00;96837.16;5031904;28;20399;-68
2023/08/16 05:10:55;;;;;;;13.60;6.60;;;;;;;19.00;100.00;96841.66;5031979;28;20030;-67
2023/08/16 05:13:20;;;;;;;11.55;6.70;;;;;;;19.20;100.00;96845.31;5032294;28;20036;-67
2023/08/16 05:15:45;;;;;;;11.43;6.28;;;;;;;19.65;100.00;96842.19;5032607;28;20033;-67
2023/08/16 05:18:11;;;;;;;11.20;6.07;;;;;;;20.84;100.00;96856.63;5032427;28;20359;-67
2023/08/16 05:20:37;;;;;;;10.40;6.07;;;;;;;22.17;100.00;96847.84;5031629;28;20021;-67
2023/08/16 05:23:03;;;;;;;11.18;5.50;;;;;;;23.41;100.00;96855.03;5031741;28;20036;-67
2023/08/16 05:25:28;;;;;;;7.53;4.40;;;;;;;24.53;98.02;96861.22;5031780;28;20426;-67
2023/08/16 05:27:58;;;;;;;13.90;4.43;;;;;;;25.48;85.74;96867.63;5033186;28;20065;-67
2023/08/16 05:30:26;;;;;;;7.25;4.57;;;;;;;25.32;81.71;96866.63;5032170;28;20490;-68
2023/08/16 05:32:54;;;;;;;8.45;4.78;;;;;;;24.53;86.82;96864.00;5013952;28;20478;-66
2023/08/16 05:35:20;;;;;;;7.22;4.97;;;;;;;24.27;93.05;96865.34;5031781;28;20112;-66
2023/08/16 05:37:48;;;;;;;6.43;4.90;;;;;;;24.15;91.30;96862.13;5032295;28;20719;-68
2023/08/16 05:40:14;;;;;;;9.77;5.18;;;;;;;23.99;97.80;96856.72;5032781;28;20079;-66
2023/08/16 05:42:40;;;;;;;10.88;5.15;;;;;;;25.03;89.79;96868.97;5032184;28;20041;-67
2023/08/16 05:45:06;;;;;;;9.52;4.75;;;;;;;26.58;78.56;96871.81;5031704;28;20038;-67
2023/08/16 05:47:32;;;;;;;9.57;4.32;;;;;;;26.50;78.04;96862.94;5034030;28;20025;-67
2023/08/16 05:49:59;;;;;;;11.90;4.38;;;;;;;27.89;68.09;96874.50;5035374;28;20043;-67
2023/08/16 05:52:24;;;;;;;10.25;4.10;;;;;;;27.29;72.23;96875.44;5035169;28;20030;-67
2023/08/16 05:54:50;;;;;;;6.38;4.05;;;;;;;26.23;79.23;96875.72;5035427;28;20545;-68
2023/08/16 05:57:15;;;;;;;6.57;3.70;;;;;;;26.24;73.68;96876.53;5035784;28;20034;-67
2023/08/16 05:59:40;;;;;;;6.47;3.22;;;;;;;25.12;80.58;96875.41;5035399;28;20037;-67
2023/08/16 06:02:06;;;;;;;7.10;3.30;;;;;;;23.76;85.33;96877.44;5034959;28;20056;-67
2023/08/16 06:04:33;;;;;;;7.40;3.58;;;;;;;23.11;94.52;96873.13;5035180;28;20082;-66
2023/08/16 06:06:59;;;;;;;6.45;3.72;;;;;;;22.91;95.30;96877.66;5035355;28;20033;-66
2023/08/16 06:09:25;;;;;;;5.55;3.70;;;;;;;22.87;94.24;96876.22;5018267;28;20430;-67
2023/08/16 06:11:50;;;;;;;6.95;3.90;;;;;;;22.71;98.55;96875.06;5017652;28;20021;-66
2023/08/16 06:14:15;;;;;;;6.90;3.80;;;;;;;22.58;99.79;96879.03;5036724;28;20051;-68
2023/08/16 06:16:41;;;;;;;6.75;3.90;;;;;;;23.95;94.39;96886.81;5035503;28;20061;-67
2023/08/16 06:19:06;;;;;;;10.30;3.80;;;;;;;25.80;82.54;96897.16;5034960;28;20498;-67
2023/08/16 06:21:31;;;;;;;8.02;3.53;;;;;;;26.51;73.83;96903.81;5035188;28;20029;-67
2023/08/16 06:23:57;;;;;;;5.75;3.90;;;;;;;25.37;81.84;96902.50;5034967;28;20037;-66
2023/08/16 06:26:23;;;;;;;5.53;3.70;;;;;;;25.45;79.82;96896.59;5034757;28;20092;-67
2023/08/16 06:28:48;;;;;;;6.65;3.90;;;;;;;26.41;77.42;96899.44;5033654;28;20112;-67
2023/08/16 06:31:14;;;;;;;7.60;5.03;;;;;;;26.50;71.22;96905.81;5034320;28;20417;-67
2023/08/16 06:33:39;;;;;;;8.38;4.63;;;;;;;28.29;64.70;96903.50;5037453;28;20025;-66
2023/08/16 06:36:05;;;;;;;6.63;3.50;;;;;;;28.92;61.97;96909.88;5035164;28;20025;-68
2023/08/16 06:38:30;;;;;;;6.43;3.22;;;;;;;30.69;54.97;96914.78;5034893;28;20516;-66
2023/08/16 06:40:55;;;;;;;7.35;3.10;;;;;;;30.99;50.05;96923.06;5034721;28;20041;-67
2023/08/16 06:43:21;;;;;;;6.15;3.30;;;;;;;28.93;54.03;96914.22;5034350;28;20025;-67
2023/08/16 06:45:46;;;;;;;7.13;3.20;;;;;;;27.06;62.93;96906.59;5034685;28;20040;-67
2023/08/16 06:48:12;;;;;;;8.32;3.72;;;;;;;25.33;70.32;96906.66;5034577;28;20061;-67
2023/08/16 06:50:38;;;;;;;7.03;3.25;;;;;;;25.34;73.18;96897.78;5034397;28;20479;-67
2023/08/16 06:53:04;;;;;;;7.53;2.88;;;;;;;25.58;74.03;96900.06;5034154;28;20030;-66
2023/08/16 06:55:29;;;;;;;6.90;3.00;;;;;;;26.48;68.01;96902.72;5034673;28;20547;-67
2023/08/16 06:57:54;;;;;;;9.73;4.57;;;;;;;26.98;63.57;96910.97;5034378;28;20597;-67
2023/08/16 07:00:20;;;;;;;12.50;3.30;;;;;;;27.87;63.42;96904.38;5034103;28;20037;-67
2023/08/16 07:02:45;;;;;;;7.25;3.17;;;;;;;29.64;54.50;96920.06;5033769;28;20065;-67
2023/08/16 07:05:12;;;;;;;7.88;3.17;;;;;;;28.16;59.64;96913.00;5032968;28;20414;-68
2023/08/16 07:07:38;;;;;;;7.68;3.03;;;;;;;28.69;56.69;96919.19;5034421;28;20086;-67
2023/08/16 07:10:04;;;;;;;8.65;3.60;;;;;;;25.95;65.94;96922.66;5016762;28;20368;-67
2023/08/16 07:12:30;;;;;;;10.23;3.70;;;;;;;24.23;77.83;96905.41;5033776;28;20030;-67
2023/08/16 07:14:55;;;;;;;5.70;3.03;;;;;;;25.71;74.70;96909.16;5034206;28;20152;-67
2023/08/16 07:17:21;;;;;;;7.63;3.20;;;;;;;25.46;71.29;96910.16;5033807;28;20418;-68
2023/08/16 07:19:48;;;;;;;9.73;3.33;;;;;;;25.98;70.59;96915.31;5035486;28;20037;-67
2023/08/16 07:22:14;;;;;;;8.98;3.80;;;;;;;26.44;66.58;96927.38;5035970;28;20030;-67
2023/08/16 07:24:39;;;;;;;5.70;3.05;;;;;;;27.03;66.38;96918.00;5034102;28;20051;-67
2023/08/16 07:27:05;;;;;;;7.47;3.28;;;;;;;29.16;58.03;96923.91;5034272;28;20104;-68
2023/08/16 07:29:30;;;;;;;7.60;2.95;;;;;;;29.49;54.96;96927.75;5033528;28;20108;-67
2023/08/16 07:31:56;;;;;;;7.10;3.40;;;;;;;27.19;63.81;96916.81;5033663;28;20029;-66
2023/08/16 07:34:21;;;;;;;7.28;3.33;;;;;;;27.52;61.22;96924.56;5036056;28;20034;-66
2023/08/16 07:36:47;;;;;;;5.00;3.45;;;;;;;25.28;71.23;96921.28;5035514;28;20172;-67
2023/08/16 07:39:12;;;;;;;8.27;3.33;;;;;;;27.07;64.20;96925.00;5034487;28;20033;-68
2023/08/16 07:41:38;;;;;;;10.82;3.38;;;;;;;28.25;59.56;96925.44;5034766;28;20546;-67
2023/08/16 07:44:04;;;;;;;4.38;2.92;;;;;;;29.24;54.20;96931.97;5033949;28;20112;-67
2023/08/16 07:46:29;;;;;;;9.05;3.17;;;;;;;26.33;65.64;96922.22;5034641;28;20037;-67
2023/08/16 07:48:54;;;;;;;8.85;3.40;;;;;;;25.43;67.03;96925.09;5034675;28;20033;-67
2023/08/16 07:51:20;;;;;;;5.28;3.83;;;;;;;25.83;69.26;96924.28;5034161;28;20421;-67
2023/08/16 07:53:46;;;;;;;8.00;3.75;;;;;;;25.92;69.85;96929.16;5033439;28;20025;-67
2023/08/16 07:56:11;;;;;;;7.45;3.63;;;;;;;26.49;66.31;96920.38;5033619;28;20407;-67
2023/08/16 07:58:37;;;;;;;6.60;3.13;;;;;;;27.94;60.18;96932.19;5033652;28;20033;-67
2023/08/16 08:01:03;;;;;;;8.93;3.30;;;;;;;29.70;52.78;96945.53;5033340;28;20116;-68
2023/08/16 08:03:29;;;;;;;7.63;3.20;;;;;;;28.01;56.95;96924.19;5033329;28;20402;-67
2023/08/16 08:06:00;;;;;;;6.05;3.67;;;;;;;27.02;60.27;96928.44;5033713;28;20079;-66
2023/08/16 08:08:26;;;;;;;4.63;3.10;;;;;;;27.13;60.16;96930.75;5015601;28;20030;-67
2023/08/16 08:10:51;;;;;;;7.53;2.90;;;;;;;27.96;60.81;96924.81;5033405;28;20044;-67
2023/08/16 08:13:17;;;;;;;7.10;3.50;;;;;;;30.27;52.01;96935.81;5031960;28;20025;-68
2023/08/16 08:15:42;;;;;;;6.88;3.22;;;;;;;30.68;48.38;96938.66;5033229;28;20045;-68
2023/08/16 08:18:08;;;;;;;4.95;2.90;;;;;;;30.65;49.76;96942.50;5033303;28;20083;-68
2023/08/16 08:20:33;;;;;;;8.68;3.47;;;;;;;27.71;58.58;96937.28;5033689;28;20036;-67
2023/08/16 08:22:58;;;;;;;6.38;3.00;;;;;;;26.90;63.46;96923.75;5032884;28;20041;-67
2023/08/16 08:25:24;;;;;;;6.60;3.10;;;;;;;28.83;58.97;96934.53;5033698;28;20071;-67
2023/08/16 08:27:50;;;;;;;6.82;3.20;;;;;;;29.63;55.92;96929.78;5033198;28;20033;-67
2023/08/16 08:30:18;;;;;;;7.32;4.15;;;;;;;29.65;54.54;96932.88;5032715;28;20099;-67
2023/08/16 08:32:43;;;;;;;6.97;3.35;;;;;;;31.57;49.36;96940.09;5014864;28;20026;-68
2023/08/16 08:35:09;;;;;;;7.72;3.80;;;;;;;32.26;49.31;96934.34;5033206;28;20079;-67
2023/08/16 08:37:35;;;;;;;7.82;3.92;;;;;;;32.71;48.43;96933.78;5033303;28;20068;-67
2023/08/16 08:40:00;;;;;;;6.38;3.92;;;;;;;32.17;49.13;96931.72;5033436;28;20065;-67
2023/08/16 08:42:28;;;;;;;7.03;3.50;;;;;;;31.25;52.06;96928.72;5032058;28;20034;-67
2023/08/16 08:44:54;;;;;;;9.52;4.50;;;;;;;32.29;50.33;96929.75;5033595;28;20113;-67
2023/08/16 08:47:20;;;;;;;8.23;3.92;;;;;;;33.04;48.06;96933.06;5033689;28;20033;-67
2023/08/16 08:49:47;;;;;;;7.13;4.10;;;;;;;33.01;47.54;96933.31;5032558;28;20033;-67
2023/08/16 08:52:14;;;;;;;11.70;3.75;;;;;;;33.06;48.07;96930.53;5032803;28;20064;-67
2023/08/16 08:54:39;;;;;;;7.35;4.35;;;;;;;33.17;47.01;96931.81;5031553;28;20025;-67
2023/08/16 08:57:05;;;;;;;8.98;3.90;;;;;;;33.15;46.75;96923.81;5033381;28;20040;-68
2023/08/16 08:59:33;;;;;;;9.07;4.50;;;;;;;32.33;48.38;96919.69;5032225;28;20121;-68
2023/08/16 09:01:58;;;;;;;10.07;4.20;;;;;;;32.53;48.11;96930.06;5032467;28;20029;-68
2023/08/16 09:04:25;;;;;;;7.78;4.38;;;;;;;31.79;49.06;96933.81;5032391;28;20119;-66
2023/08/16 09:06:51;;;;;;;8.02;4.60;;;;;;;32.71;48.24;96928.13;5032098;28;20452;-68
2023/08/16 09:09:17;;;;;;;9.02;4.00;;;;;;;33.20;47.10;96925.91;5031974;28;20036;-68
2023/08/16 09:11:43;;;;;;;8.20;3.80;;;;;;;33.52;47.13;96923.59;5032741;28;20030;-68
2023/08/16 09:14:09;;;;;;;8.52;4.65;;;;;;;33.02;46.79;96923.53;5031642;28;20041;-68
2023/08/16 09:16:34;;;;;;;7.40;4.50;;;;;;;32.47;48.05;96925.69;5023555;28;20388;-67
2023/08/16 09:19:00;;;;;;;7.47;4.15;;;;;;;33.71;46.37;96915.34;5032607;28;20049;-67
2023/08/16 09:21:28;;;;;;;9.48;4.53;;;;;;;32.99;46.72;96916.84;5031127;28;20471;-68
2023/08/16 09:23:58;;;;;;;8.63;3.83;;;;;;;34.16;44.76;96919.34;5033413;28;20034;-68
2023/08/16 09:26:26;;;;;;;9.85;4.00;;;;;;;33.37;45.97;96902.41;5032939;28;20038;-68
2023/08/16 09:29:04;;;;;;;10.95;4.53;;;;;;;33.90;44.97;96911.94;5034082;28;20029;-68
2023/08/16 09:31:37;;;;;;;7.28;3.90;;;;;;;33.12;47.12;96897.25;5033962;28;20025;-68
2023/08/16 09:34:03;;;;;;;6.43;4.22;;;;;;;32.48;48.37;96890.38;5031665;28;20025;-67
2023/08/16 09:36:30;;;;;;;8.85;3.75;;;;;;;32.31;48.98;96896.00;5032650;28;20029;-67
2023/08/16 09:39:14;;;;;;;10.93;3.83;;;;;;;32.78;48.37;96887.91;5033697;28;20092;-67
2023/08/16 09:41:49;;;;;;;7.45;4.28;;;;;;;33.57;47.22;96892.88;5032801;28;20486;-67
2023/08/16 09:44:15;;;;;;;6.85;4.15;;;;;;;34.27;45.36;96897.41;5031404;28;20498;-67
2023/08/16 09:46:41;;;;;;;8.48;4.70;;;;;;;34.26;44.45;96900.75;5031607;28;20064;-67
2023/08/16 09:49:08;;;;;;;9.73;4.85;;;;;;;33.68;46.26;96887.97;5031712;28;20025;-68
2023/08/16 09:51:35;;;;;;;5.63;3.47;;;;;;;33.20;46.51;96883.34;5031488;28;20030;-67
2023/08/16 09:54:02;;;;;;;7.40;3.88;;;;;;;34.05;44.97;96881.19;5031580;28;20040;-67
2023/08/16 09:56:31;;;;;;;8.52;3.75;;;;;;;33.83;46.18;96892.59;5031780;28;20041;-67
2023/08/16 09:58:59;;;;;;;7.38;4.15;;;;;;;33.77;46.55;96877.66;5032073;28;20060;-67
2023/08/16 10:01:25;;;;;;;6.35;3.63;;;;;;;34.03;45.69;96877.28;5031580;28;20033;-67
2023/08/16 10:03:53;;;;;;;8.60;4.28;;;;;;;33.80;45.71;96882.25;5031833;28;20216;-67
2023/08/16 10:06:23;;;;;;;8.52;4.75;;;;;;;32.71;48.09;96874.22;5032721;28;20040;-67
2023/08/16 10:08:52;;;;;;;7.45;4.07;;;;;;;33.30;46.94;96875.34;5031718;28;20044;-67
2023/08/16 10:11:17;;;;;;;8.07;3.85;;;;;;;33.75;46.28;96868.88;5031649;28;20048;-67
2023/08/16 10:13:44;;;;;;;11.05;4.50;;;;;;;32.91;47.89;96874.00;5031428;28;20026;-67
2023/08/16 10:16:14;;;;;;;8.70;4.82;;;;;;;32.86;47.67;96863.44;5031793;28;20046;-67
2023/08/16 10:18:43;;;;;;;8.80;4.00;;;;;;;32.14;50.44;96859.06;5031324;28;20642;-67
2023/08/16 10:21:15;;;;;;;6.75;4.30;;;;;;;32.26;50.16;96851.41;5031423;28;20040;-67
2023/08/16 10:23:41;;;;;;;9.48;5.10;;;;;;;33.16;47.27;96856.53;5031096;28;20025;-67
2023/08/16 10:26:14;;;;;;;9.70;4.30;;;;;;;33.22;47.68;96848.75;5029995;28;20034;-67
2023/08/16 10:28:50;;;;;;;6.45;3.50;;;;;;;33.54;47.02;96846.41;5031976;28;20104;-66
2023/08/16 10:31:28;;;;;;;7.97;3.72;;;;;;;33.63;45.82;96846.13;5031397;28;20124;-67
2023/08/16 10:33:55;;;;;;;8.90;4.05;;;;;;;33.32;46.85;96845.16;5034149;28;20032;-67
2023/08/16 10:36:21;;;;;;;5.05;3.20;;;;;;;33.97;46.15;96842.47;5034776;28;20029;-68
2023/08/16 10:38:53;;;;;;;8.43;3.83;;;;;;;34.20;45.47;96841.09;5034750;28;20578;-67
2023/08/16 10:41:20;;;;;;;7.32;3.70;;;;;;;34.46;44.51;96842.78;5034483;28;20029;-68
2023/08/16 10:43:53;;;;;;;8.63;3.85;;;;;;;33.99;44.34;96842.72;5034258;28;20076;-68
2023/08/16 10:46:26;;;;;;;9.93;3.78;;;;;;;34.19;42.90;96842.38;5034736;28;20037;-67
2023/08/16 10:49:03;;;;;;;8.77;4.13;;;;;;;33.65;45.75;96840.72;5016793;28;20108;-67
2023/08/16 10:51:30;;;;;;;6.78;3.75;;;;;;;33.65;45.39;96837.09;5040018;28;20037;-67
2023/08/16 10:53:59;;;;;;;5.90;3.72;;;;;;;33.55;45.19;96833.78;5019151;28;20032;-67
2023/08/16 10:56:24;;;;;;;5.32;3.35;;;;;;;33.55;45.03;96833.78;5042470;28;20105;-67
2023/08/16 10:58:52;;;;;;;9.57;4.75;;;;;;;33.07;45.22;96832.75;5016635;28;20120;-68
2023/08/16 11:01:18;;;;;;;8.02;4.32;;;;;;;32.88;45.47;96834.53;5034501;28;20040;-66
2023/08/16 11:03:46;;;;;;;11.43;3.92;;;;;;;31.92;47.51;96831.41;5034824;28;20037;-66
2023/08/16 11:06:12;;;;;;;6.18;4.05;;;;;;;32.43;47.59;96826.72;5034286;28;20419;-66
2023/08/16 11:08:42;;;;;;;7.22;3.90;;;;;;;32.22;48.45;96822.56;5016638;28;20029;-67
2023/08/16 11:11:08;;;;;;;7.10;3.75;;;;;;;32.08;48.69;96827.91;5034472;28;20520;-66
2023/08/16 11:13:33;;;;;;;7.47;4.30;;;;;;;31.72;48.42;96818.19;5033785;28;20032;-66
2023/08/16 11:15:59;;;;;;;7.78;4.45;;;;;;;31.37;51.85;96817.19;5034712;28;20026;-66
2023/08/16 11:18:29;;;;;;;10.55;4.50;;;;;;;31.11;52.26;96811.59;5034131;28;20479;-67
2023/08/16 11:20:55;;;;;;;7.93;4.53;;;;;;;31.10;51.59;96823.41;5034570;28;20033;-66
2023/08/16 11:23:21;;;;;;;9.60;4.47;;;;;;;30.80;52.13;96810.28;5033678;28;20075;-66